MMAA/ACA METAR and TAF weather

Enter ICAO airport designator
Station Type Date Time Source
MMAA METAR 2018/12/13 05:49 UTC NOAA

MMAA 130549Z 35002KT 6SM FEW080 FEW300 26/24 A2995 RMK SLP132 57012 967 8/032 HZY CU


Station Type Date Time Source
MMAA Decoded METAR 2018/12/13 05:49 UTC NOAA

Acapulco / G. Alvarez, Mexico (MMAA) 16-46N 099-45W
Dec 13, 2018 - 12:49 AM EST / 2018.12.13 0549 UTC
Wind: from the N (350 degrees) at 2 MPH (2 KT):0
Visibility: 6 mile(s):0
Sky conditions: mostly clear
Temperature: 78 F (26 C)
Dew Point: 75 F (24 C)
Relative Humidity: 88%
Pressure (altimeter): 29.95 in. Hg (1014 hPa)
Pressure tendency: 0.04 inches (1.2 hPa) lower than three hours ago
ob: MMAA 130549Z 35002KT 6SM FEW080 FEW300 26/24 A2995 RMK SLP132 57012 967 8/032 HZY CU
cycle: 6

Station Type Date Time Source
MMAA TAF 2018/12/13 06:45 UTC NOAA

TAF MMAA 130436Z 1306/1412 28004KT 6SM HZ SCT080 SCT300 TX30/1320Z TN24/1312Z
FM131800 24008KT P6SM SCT020 SCT090 BKN250
BECMG 1405/1406 02005KT


Example: see airport list